Latest Coastal Weather Observations for Hopetoun North

IDW60701

Issued at 1:22 pm WST Tuesday 7 July 2015 (issued every 10 minutes, with the page automatically refreshed every 10 minutes)

About coastal observations | Map of coastal stations | Coastal observations for WA | Marine services | Other Formats
Station Details ID: 009961 Name: HOPETOUN NORTH Lat: -33.93 Lon: 120.13 Height: 26.0 m
Data from the previous 72 hours. | See also: Recent months at Hopetoun North
Date/Time
WST
Temp

°C
Wind Pressure Rain
since 9am
mm
Weather Cloud Vis
km
Sea
Height
m
Swell
Dir
 
Speed
knots
Gust
knots
hPa Trend Height
m
Period
s
Dir
07/01:00pm 20.0 NW 10 16 1015.3 - 0.0 - - - - - - -
07/12:30pm 19.4 WNW 10 17 1015.9 - 0.0 - - - - - - -
07/12:00pm 19.7 NW 10 16 1016.4 - 0.0 - - - - - - -
07/11:30am 19.1 NW 11 16 1017.1 - 0.0 - - - - - - -
07/11:00am 18.4 NW 10 16 1017.6 - 0.0 - - - - - - -
07/10:30am 17.6 NNW 10 16 1018.2 - 0.0 - - - - - - -
07/10:00am 16.7 NNW 9 12 1018.5 - 0.0 - - - - - - -
07/09:30am 15.1 NNW 8 11 1018.6 - 0.0 - - - - - - -
07/09:00am 14.4 N 7 11 1018.7 - 0.2 - - - - - - -
07/08:30am 13.2 N 9 13 1018.7 - 0.2 - - - - - - -
07/08:00am 13.3 NNW 7 10 1018.6 - 0.2 - - - - - - -
07/07:30am 12.5 NNW 5 8 1018.5 - 0.2 - - - - - - -
07/07:00am 12.2 NNW 4 7 1018.3 - 0.2 - - - - - - -
07/06:30am 12.9 NW 4 7 1018.0 - 0.2 - - - - - - -
07/06:00am 13.3 WNW 5 9 1017.9 - 0.2 - - - - - - -
07/05:30am 13.5 NW 6 10 1017.8 - 0.2 - - - - - - -
07/05:00am 11.5 NW 1 3 1017.8 - 0.2 - - - - - - -
07/04:30am 11.8 NNW 2 4 1017.6 - 0.2 - - - - - - -
07/04:00am 12.4 NW 6 8 1017.7 - 0.2 - - - - - - -
07/03:30am 11.0 WNW 5 8 1018.0 - 0.2 - - - - - - -
07/03:00am 11.7 NW 4 6 1018.0 - 0.2 - - - - - - -
07/02:30am 11.9 NNW 4 5 1018.0 - 0.2 - - - - - - -
07/02:00am 12.7 NNW 5 7 1018.1 - 0.2 - - - - - - -
07/01:30am 12.7 NW 4 7 1018.0 - 0.2 - - - - - - -
07/01:00am 12.7 NNW 4 7 1018.1 - 0.2 - - - - - - -
07/12:30am 13.0 N 5 7 1018.2 - 0.2 - - - - - - -
07/12:00am 13.2 N 5 7 1018.5 - 0.2 - - - - - - -
 
Date/Time
WST
Temp

°C
Wind Pressure Rain
since 9am
mm
Weather Cloud Vis
km
Sea
Height
m
Swell
Dir
 
Speed
knots
Gust
knots
hPa Trend Height
m
Period
s
Dir
06/11:30pm 13.4 N 5 7 1018.7 - 0.2 - - - - - - -
06/11:00pm 13.6 N 6 8 1018.9 - 0.2 - - - - - - -
06/10:30pm 11.8 NNE 4 5 1019.1 - 0.2 - - - - - - -
06/10:00pm 13.4 N 4 7 1019.3 - 0.2 - - - - - - -
06/09:30pm 13.1 NNE 4 6 1019.6 - 0.2 - - - - - - -
06/09:00pm 13.0 NE 3 5 1019.8 - 0.2 - - - - - - -
06/08:30pm 13.1 NNE 3 5 1019.9 - 0.2 - - - - - - -
06/08:00pm 12.7 N 3 5 1020.0 - 0.2 - - - - - - -
06/07:30pm 12.3 NE 3 4 1019.8 - 0.2 - - - - - - -
06/07:00pm 12.5 NNE 3 3 1019.8 - 0.2 - - - - - - -
06/06:30pm 13.4 N 3 4 1019.7 - 0.2 - - - - - - -
06/06:00pm 13.4 N 3 3 1019.5 - 0.2 - - - - - - -
06/05:30pm 13.9 N 4 6 1019.3 - 0.2 - - - - - - -
06/05:00pm 15.0 N 4 6 1019.2 - 0.2 - - - - - - -
06/04:30pm 16.8 N 6 8 1019.1 - 0.2 - - - - - - -
06/04:00pm 18.3 N 7 10 1019.0 - 0.2 - - - - - - -
06/03:30pm 19.1 NW 5 8 1019.0 - 0.2 - - - - - - -
06/03:00pm 19.4 NNW 5 8 1019.1 - 0.2 - - - - - - -
06/02:30pm 19.4 N 5 8 1019.0 - 0.2 - - - - - - -
06/02:00pm 19.4 NW 5 12 1019.1 - 0.2 - - - - - - -
06/01:30pm 19.4 N 5 8 1019.4 - 0.2 - - - - - - -
06/01:00pm 19.1 NNE 2 3 1019.8 - 0.2 - - - - - - -
06/12:30pm 18.7 NNE 4 7 1020.2 - 0.2 - - - - - - -
06/12:00pm 18.4 W 3 6 1020.7 - 0.2 Recent precip. - - - - - -
06/11:30am 18.0 NW 6 9 1021.2 - 0.0 - - - - - - -
06/11:00am 17.8 WNW 7 9 1021.7 - 0.0 - - - - - - -
06/10:30am 17.0 WNW 5 8 1022.1 - 0.0 - - - - - - -
06/10:00am 15.6 NNW 4 6 1022.1 - 0.0 - - - - - - -
06/09:30am 14.3 N 4 5 1022.1 - 0.0 - - - - - - -
06/09:00am 12.7 N 3 4 1021.8 - 0.0 - - - - - - -
06/08:30am 11.0 NNW 4 5 1021.7 - 0.0 - - - - - - -
06/08:00am 8.0 N 3 4 1021.4 - 0.0 - - - - - - -
06/07:30am 6.8 N 3 3 1021.2 - 0.0 - - - - - - -
06/07:00am 7.0 NNW 4 5 1021.1 - 0.0 - - - - - - -
06/06:30am 7.2 NNW 5 5 1021.0 - 0.0 - - - - - - -
06/06:00am 6.9 N 4 4 1020.7 - 0.0 - - - - - - -
06/05:30am 7.5 N 5 6 1020.5 - 0.0 - - - - - - -
06/05:00am 7.9 N 4 6 1020.3 - 0.0 - - - - - - -
06/04:30am 8.0 NNW 5 6 1020.2 - 0.0 - - - - - - -
06/04:00am 8.5 NNW 6 7 1020.1 - 0.0 - - - - - - -
06/03:30am 8.9 NNW 7 8 1020.1 - 0.0 - - - - - - -
06/03:00am 8.8 NNW 6 7 1020.2 - 0.0 - - - - - - -
06/02:30am 9.2 NW 6 7 1020.2 - 0.0 - - - - - - -
06/02:00am 8.9 NNW 4 5 1020.2 - 0.0 - - - - - - -
06/01:30am 9.2 NNW 4 4 1020.2 - 0.0 - - - - - - -
06/01:00am 9.3 NNW 5 6 1020.3 - 0.0 - - - - - - -
06/12:30am 9.2 NNW 4 5 1020.4 - 0.0 - - - - - - -
06/12:00am 9.5 N 4 5 1020.3 - 0.0 - - - - - - -
 
Date/Time
WST
Temp

°C
Wind Pressure Rain
since 9am
mm
Weather Cloud Vis
km
Sea
Height
m
Swell
Dir
 
Speed
knots
Gust
knots
hPa Trend Height
m
Period
s
Dir
05/11:30pm 9.8 N 4 5 1020.4 - 0.0 - - - - - - -
05/11:00pm 10.6 N 3 4 1020.7 - 0.0 - - - - - - -
05/10:30pm 11.0 N 2 3 1020.8 - 0.0 - - - - - - -
05/10:00pm 11.7 NE 3 5 1020.8 - 0.0 - - - - - - -
05/09:30pm 12.0 NE 4 5 1020.8 - 0.0 - - - - - - -
05/09:00pm 12.1 NNE 3 4 1020.9 - 0.0 - - - - - - -
05/08:30pm 12.0 NNE 3 3 1020.9 - 0.0 - - - - - - -
05/08:00pm 12.3 NNE 2 3 1020.9 - 0.0 - - - - - - -
05/07:30pm 12.0 NNE 3 3 1020.7 - 0.0 - - - - - - -
05/07:00pm 13.2 NE 2 3 1020.5 - 0.0 - - - - - - -
05/06:30pm 12.9 SE 1 1 1020.3 - 0.0 - - - - - - -
05/06:00pm 14.2 SSE 2 3 1020.0 - 0.0 - - - - - - -
05/05:30pm 14.0 SSE 4 4 1019.6 - 0.0 - - - - - - -
05/05:00pm 14.2 SE 3 3 1019.4 - 0.0 - - - - - - -
05/04:30pm 14.9 SE 3 4 1019.3 - 0.0 - - - - - - -
05/04:00pm 16.1 SE 4 5 1019.2 - 0.0 - - - - - - -
05/03:30pm 16.3 S 5 7 1019.0 - 0.0 - - - - - - -
05/03:00pm 16.5 S 4 5 1019.1 - 0.0 - - - - - - -
05/02:30pm 16.9 S 4 6 1019.1 - 0.0 - - - - - - -
05/02:00pm 17.4 SSW 4 5 1019.1 - 0.0 - - - - - - -
05/01:30pm 17.1 SW 4 6 1019.1 - 0.0 - - - - - - -
05/01:00pm 17.3 SW 5 7 1019.2 - 0.0 - - - - - - -
05/12:30pm 17.0 SW 6 8 1019.5 - 0.0 - - - - - - -
05/12:00pm 17.4 SW 5 8 1020.1 - 0.0 - - - - - - -
05/11:30am 17.4 WSW 5 8 1020.4 - 0.0 - - - - - - -
05/11:00am 16.8 WSW 6 9 1020.8 - 0.0 - - - - - - -
05/10:30am 16.5 WSW 6 8 1020.8 - 0.0 - - - - - - -
05/10:00am 16.1 WSW 6 9 1021.0 - 0.0 - - - - - - -
05/09:30am 15.5 W 6 8 1020.8 - 0.0 - - - - - - -
05/09:00am 14.7 W 4 7 1020.5 - 0.0 - - - - - - -
05/08:30am 13.7 WNW 4 6 1020.3 - 0.0 - - - - - - -
05/08:00am 12.3 WNW 5 7 1020.1 - 0.0 - - - - - - -
05/07:30am 11.9 W 4 6 1019.8 - 0.0 - - - - - - -
05/07:00am 12.1 W 6 7 1019.4 - 0.0 - - - - - - -
05/06:30am 12.2 W 6 8 1019.3 - 0.0 - - - - - - -
05/06:00am 13.4 W 7 10 1019.0 - 0.0 - - - - - - -
05/05:30am 14.4 WSW 9 15 1018.6 - 0.0 - - - - - - -
05/05:00am 14.3 WSW 12 16 1018.5 - 0.0 - - - - - - -
05/04:30am 13.8 W 9 14 1018.3 - 0.0 - - - - - - -
05/04:00am 13.7 W 9 13 1018.2 - 0.0 - - - - - - -
05/03:30am 13.6 W 8 12 1018.2 - 0.0 - - - - - - -
05/03:00am 12.7 WNW 6 9 1018.4 - 0.0 - - - - - - -
05/02:30am 12.4 WNW 7 10 1018.5 - 0.0 - - - - - - -
05/02:00am 12.4 WNW 8 12 1018.4 - 0.0 - - - - - - -
05/01:30am 12.7 WNW 7 13 1018.3 - 0.0 - - - - - - -
05/01:00am 12.7 WNW 6 9 1018.2 - 0.0 - - - - - - -
05/12:30am 13.2 WNW 8 12 1018.2 - 0.0 - - - - - - -
05/12:00am 13.6 W 8 12 1018.3 - 0.0 - - - - - - -
 
Date/Time
WST
Temp

°C
Wind Pressure Rain
since 9am
mm
Weather Cloud Vis
km
Sea
Height
m
Swell
Dir
 
Speed
knots
Gust
knots
hPa Trend Height
m
Period
s
Dir
04/11:30pm 14.1 WNW 9 15 1018.2 - 0.0 - - - - - - -
04/11:00pm 12.6 NW 5 9 1018.1 - 0.0 - - - - - - -
04/10:30pm 11.7 N 2 5 1018.2 - 0.0 - - - - - - -
04/10:00pm 11.8 NW 3 4 1018.4 - 0.0 - - - - - - -
04/09:30pm 11.0 N 3 4 1018.5 - 0.0 - - - - - - -
04/09:00pm 11.6 NNW 4 4 1018.6 - 0.0 - - - - - - -
04/08:30pm 11.4 NNE 3 4 1018.7 - 0.0 - - - - - - -
04/08:00pm 12.4 NNE 3 4 1018.7 - 0.0 - - - - - - -
04/07:30pm 14.6 NW 4 5 1018.7 - 0.0 - - - - - - -
04/07:00pm 14.9 WNW 6 7 1018.7 - 0.0 - - - - - - -
04/06:30pm 14.9 NNW 4 5 1018.6 - 0.0 - - - - - - -
04/06:00pm 15.7 NNW 4 5 1018.5 - 0.0 - - - - - - -
04/05:30pm 16.3 NW 4 5 1018.5 - 0.0 - - - - - - -
04/05:00pm 16.5 W 3 5 1018.6 - 0.0 - - - - - - -
04/04:30pm 17.9 WNW 5 8 1018.5 - 0.0 - - - - - - -
04/04:00pm 18.7 W 4 7 1018.6 - 0.0 - - - - - - -
04/03:30pm 18.9 NW 3 6 1018.4 - 0.0 - - - - - - -
04/03:00pm 17.8 SSW 3 5 1018.7 - 0.0 - - - - - - -
04/02:30pm 17.3 W 2 3 1018.7 - 0.0 - - - - - - -
04/02:00pm 17.6 SW 4 6 1018.8 - 0.0 - - - - - - -
04/01:30pm 17.4 SW 4 7 1019.0 - 0.0 - - - - - - -

Other Formats:

Comma delimited format used in spreadsheet applications
http://www.bom.gov.au/fwo/IDW60701/IDW60701.95635.axf

JavaScript Object Notation format (JSON) in row-major order
http://www.bom.gov.au/fwo/IDW60701/IDW60701.95635.json